Terminal Aerodrome Forecast
Issued by NWS

Home | Current Version | Previous Version | Graphics & Text | Print | Product List | Glossary On
Versions: 1 2 3 4 5 6 7 8 9 10 11 12 13 14 15 16 17 18 19 20 21 22 23 24
316
FTUS42 KMHX 291253 AAA
TAFISO
TAF AMD
KISO 291253Z 2913/3012 06005KT 6SM SHRA OVC004
     FM291500 09007KT 6SM SHRA OVC020
     FM291900 10007KT 5SM SHRA SCT015 OVC035
     FM300600 05003KT 5SM SHRA OVC007
      AMD LTD TO CLD VIS AND WIND=

USA.gov is the U.S. government's official web portal to all federal, state and local government web resources and services.